Time;durP1;ratioP1;P1;durP2;ratioP2;P2;SDS_P1;SDS_P2;PMS_P1;PMS_P2;Temp;Humidity;BMP_temperature;BMP_pressure;BME280_temperature;BME280_humidity;BME280_pressure;Samples;Min_cycle;Max_cycle;Signal;HPM_P1;HPM_P2
2022/03/21 00:02:26;;;;;;;13.67;8.90;;;6.70;99.90;;;;;;5033423;28;20180;-43
2022/03/21 00:04:55;;;;;;;14.93;9.53;;;6.70;99.90;;;;;;5033375;28;20174;-44
2022/03/21 00:07:20;;;;;;;13.83;8.47;;;6.70;99.90;;;;;;5032087;28;20180;-44
2022/03/21 00:09:46;;;;;;;14.90;9.00;;;6.70;99.90;;;;;;5033316;28;20680;-43
2022/03/21 00:12:13;;;;;;;12.70;8.57;;;6.70;99.90;;;;;;5034396;28;20234;-44
2022/03/21 00:14:42;;;;;;;14.90;8.63;;;6.70;99.90;;;;;;5038083;28;20259;-45
2022/03/21 00:17:09;;;;;;;14.00;8.23;;;6.70;99.90;;;;;;5037518;28;20169;-45
2022/03/21 00:19:35;;;;;;;13.23;9.00;;;6.70;99.90;;;;;;5037425;28;20216;-44
2022/03/21 00:22:01;;;;;;;14.53;9.23;;;6.70;99.90;;;;;;5029229;28;20183;-44
2022/03/21 00:24:26;;;;;;;15.37;9.20;;;6.70;99.90;;;;;;5037204;28;20187;-46
2022/03/21 00:26:52;;;;;;;17.70;9.63;;;6.70;99.90;;;;;;5037177;28;20644;-42
2022/03/21 00:29:18;;;;;;;15.10;9.50;;;6.70;99.90;;;;;;5035570;28;20202;-43
2022/03/21 00:31:44;;;;;;;17.53;8.80;;;6.70;99.90;;;;;;5035909;28;20192;-43
2022/03/21 00:34:10;;;;;;;17.47;9.60;;;6.70;99.90;;;;;;5036765;28;20214;-45
2022/03/21 00:36:35;;;;;;;13.67;8.63;;;6.70;99.90;;;;;;5019262;28;20188;-43
2022/03/21 00:39:01;;;;;;;13.97;8.90;;;6.70;99.90;;;;;;5037381;28;20201;-44
2022/03/21 00:41:28;;;;;;;17.07;9.23;;;6.70;99.90;;;;;;5037359;28;20188;-46
2022/03/21 00:43:54;;;;;;;12.30;8.50;;;6.70;99.90;;;;;;5037054;28;20188;-45
2022/03/21 00:46:20;;;;;;;16.67;9.00;;;6.70;99.90;;;;;;5036734;28;20184;-44
2022/03/21 00:48:45;;;;;;;15.40;9.50;;;6.70;99.90;;;;;;5036953;28;20213;-45
2022/03/21 00:51:11;;;;;;;16.60;8.70;;;6.70;99.90;;;;;;5055595;22;20227;-42
2022/03/21 00:53:37;;;;;;;21.47;9.77;;;6.70;99.90;;;;;;5056586;28;20220;-43
2022/03/21 00:56:03;;;;;;;14.03;9.10;;;6.70;99.90;;;;;;5056289;28;20183;-43
2022/03/21 00:58:28;;;;;;;14.63;9.50;;;6.70;99.90;;;;;;5056176;28;20202;-44
2022/03/21 01:00:54;;;;;;;16.40;9.70;;;6.70;99.90;;;;;;5056139;28;20225;-42
2022/03/21 01:03:19;;;;;;;16.17;9.93;;;6.70;99.90;;;;;;5056237;28;20180;-43
2022/03/21 01:05:45;;;;;;;20.17;10.70;;;6.70;99.90;;;;;;5056236;28;20247;-42
2022/03/21 01:08:11;;;;;;;15.13;9.33;;;6.70;99.90;;;;;;5055886;28;20202;-47
2022/03/21 01:10:37;;;;;;;14.20;9.00;;;6.70;99.90;;;;;;5056282;28;20184;-43
2022/03/21 01:13:03;;;;;;;12.53;8.60;;;6.60;99.90;;;;;;5056169;28;20203;-44
2022/03/21 01:15:29;;;;;;;14.50;9.07;;;6.60;99.90;;;;;;5056071;28;20184;-44
2022/03/21 01:17:57;;;;;;;13.70;8.97;;;6.60;99.90;;;;;;5037975;28;20183;-44
2022/03/21 01:20:23;;;;;;;17.00;10.40;;;6.60;99.90;;;;;;5056011;28;20189;-43
2022/03/21 01:22:50;;;;;;;15.53;9.33;;;6.60;99.90;;;;;;5055780;28;20192;-43
2022/03/21 01:25:16;;;;;;;16.17;9.90;;;6.60;99.90;;;;;;5055447;28;20190;-45
2022/03/21 01:27:42;;;;;;;15.93;10.10;;;6.60;99.90;;;;;;5055990;28;20173;-41
2022/03/21 01:30:10;;;;;;;15.57;11.13;;;6.60;99.90;;;;;;5056514;28;20199;-44
2022/03/21 01:32:37;;;;;;;14.03;9.63;;;6.60;99.90;;;;;;5055812;28;20649;-44
2022/03/21 01:35:04;;;;;;;15.03;10.23;;;6.60;99.90;;;;;;5055810;28;20180;-43
2022/03/21 01:37:30;;;;;;;17.97;9.93;;;6.60;99.90;;;;;;5055569;28;20195;-44
2022/03/21 01:39:57;;;;;;;14.80;9.83;;;6.70;99.90;;;;;;5055685;28;20210;-43
2022/03/21 01:42:22;;;;;;;18.43;12.30;;;6.60;99.90;;;;;;5055386;28;20200;-41
2022/03/21 01:44:52;;;;;;;16.60;11.37;;;6.60;99.90;;;;;;5055724;28;20658;-44
2022/03/21 01:47:17;;;;;;;17.93;12.20;;;6.60;99.90;;;;;;5037763;28;20242;-43
2022/03/21 01:49:43;;;;;;;16.53;10.67;;;6.60;99.90;;;;;;5055190;28;20681;-44
2022/03/21 01:52:09;;;;;;;16.60;10.10;;;6.60;99.90;;;;;;5055165;28;20627;-43
2022/03/21 01:57:20;;;;;;;16.17;10.83;;;6.60;99.90;;;;;;5055246;28;20552;-42
2022/03/21 01:59:47;;;;;;;16.67;10.60;;;6.60;99.90;;;;;;5055111;28;20188;-42
2022/03/21 02:02:13;;;;;;;16.80;10.70;;;6.50;99.90;;;;;;5055864;28;20192;-43
2022/03/21 02:04:39;;;;;;;16.50;10.13;;;6.50;99.90;;;;;;5055248;28;20542;-45
2022/03/21 02:07:06;;;;;;;22.23;12.97;;;6.50;99.90;;;;;;5055143;28;20180;-44
2022/03/21 02:09:32;;;;;;;18.67;11.63;;;6.50;99.90;;;;;;5055122;28;20279;-42
2022/03/21 02:11:57;;;;;;;19.10;12.03;;;6.50;99.90;;;;;;5054864;28;20206;-43
2022/03/21 02:14:24;;;;;;;16.40;10.93;;;6.50;99.90;;;;;;5055592;28;20203;-42
2022/03/21 02:16:49;;;;;;;14.93;9.93;;;6.40;99.90;;;;;;5055078;28;20263;-42
2022/03/21 02:19:28;;;;;;;17.17;10.80;;;6.30;99.90;;;;;;5054989;28;20282;-44
2022/03/21 02:22:26;;;;;;;16.40;10.70;;;6.30;99.90;;;;;;5054798;28;20159;-43
2022/03/21 02:25:29;;;;;;;15.77;9.37;;;6.30;99.90;;;;;;5055119;28;20173;-41
2022/03/21 02:28:01;;;;;;;14.33;9.77;;;6.20;99.90;;;;;;5054562;28;20188;-42
2022/03/21 02:30:29;;;;;;;15.07;10.47;;;6.10;99.90;;;;;;5054737;28;20198;-45
2022/03/21 02:32:55;;;;;;;12.83;8.73;;;6.10;99.90;;;;;;5036629;28;20275;-41
2022/03/21 02:35:22;;;;;;;14.47;8.70;;;6.10;99.90;;;;;;5053688;28;20187;-45
2022/03/21 02:37:49;;;;;;;13.63;9.57;;;6.00;99.90;;;;;;5054213;28;20176;-44
2022/03/21 02:40:16;;;;;;;16.20;9.77;;;6.00;99.90;;;;;;5054249;28;20201;-43
2022/03/21 02:42:42;;;;;;;15.43;9.87;;;5.90;99.90;;;;;;5054950;28;20156;-43
2022/03/21 02:45:08;;;;;;;11.87;8.90;;;5.90;99.90;;;;;;5036762;28;20182;-44
2022/03/21 02:47:34;;;;;;;14.43;10.17;;;5.90;99.90;;;;;;5054284;28;20168;-44
2022/03/21 02:50:01;;;;;;;12.50;9.83;;;5.90;99.90;;;;;;5054016;28;20202;-41
2022/03/21 02:52:29;;;;;;;15.47;9.53;;;5.90;99.90;;;;;;5054060;28;20617;-41
2022/03/21 02:54:55;;;;;;;14.67;9.47;;;5.90;99.90;;;;;;5054083;28;20270;-43
2022/03/21 02:57:21;;;;;;;16.13;8.87;;;5.80;99.90;;;;;;5054091;28;20187;-42
2022/03/21 02:59:47;;;;;;;12.70;9.47;;;5.80;99.90;;;;;;5054147;28;20616;-43
2022/03/21 03:02:12;;;;;;;15.97;10.87;;;5.80;99.90;;;;;;5053925;28;20214;-42
2022/03/21 03:04:38;;;;;;;19.40;11.27;;;5.80;99.90;;;;;;5054090;28;20244;-43
2022/03/21 03:07:04;;;;;;;18.43;11.50;;;5.70;99.90;;;;;;5053868;28;20237;-40
2022/03/21 03:09:29;;;;;;;20.70;13.17;;;5.70;99.90;;;;;;5053989;28;20724;-42
2022/03/21 03:11:55;;;;;;;16.63;10.70;;;5.70;99.90;;;;;;5053866;28;20177;-44
2022/03/21 03:14:21;;;;;;;18.00;11.13;;;5.70;99.90;;;;;;5053656;28;20687;-45
2022/03/21 03:16:47;;;;;;;18.10;11.60;;;5.70;99.90;;;;;;5053954;28;20191;-45
2022/03/21 03:19:12;;;;;;;17.07;11.10;;;5.70;99.90;;;;;;5053848;28;20206;-42
2022/03/21 03:21:43;;;;;;;15.47;11.50;;;5.70;99.90;;;;;;5053771;28;20269;-45
2022/03/21 03:24:10;;;;;;;16.87;11.30;;;5.70;99.90;;;;;;5053987;28;20207;-45
2022/03/21 03:26:36;;;;;;;16.90;11.10;;;5.70;99.90;;;;;;5053802;28;20259;-47
2022/03/21 03:29:01;;;;;;;18.73;10.93;;;5.70;99.90;;;;;;5053767;28;20673;-48
2022/03/21 03:31:27;;;;;;;16.73;10.63;;;5.60;99.90;;;;;;5053841;28;20190;-47
2022/03/21 03:33:54;;;;;;;18.03;11.03;;;5.60;99.90;;;;;;5053398;28;20206;-48
2022/03/21 03:36:20;;;;;;;15.20;10.53;;;5.60;99.90;;;;;;5053412;28;20228;-47
2022/03/21 03:38:46;;;;;;;18.17;9.87;;;5.50;99.90;;;;;;5053408;28;20197;-48
2022/03/21 03:41:12;;;;;;;15.87;9.90;;;5.50;99.90;;;;;;5053660;28;20188;-49
2022/03/21 03:43:38;;;;;;;13.77;9.83;;;5.50;99.90;;;;;;5053621;28;20187;-46
2022/03/21 03:46:04;;;;;;;14.97;9.57;;;5.40;99.90;;;;;;5053407;28;20644;-48
2022/03/21 03:48:30;;;;;;;13.80;10.10;;;5.30;99.90;;;;;;5053057;28;20214;-49
2022/03/21 03:50:56;;;;;;;16.03;10.40;;;5.30;99.90;;;;;;5053377;28;20198;-48
2022/03/21 03:53:22;;;;;;;18.87;10.53;;;5.30;99.90;;;;;;5053819;28;20189;-48
2022/03/21 03:55:48;;;;;;;15.17;9.63;;;5.20;99.90;;;;;;5053132;28;20555;-48
2022/03/21 03:58:14;;;;;;;16.83;9.60;;;5.10;99.90;;;;;;5053836;28;20227;-49
2022/03/21 04:00:39;;;;;;;12.37;9.07;;;5.10;99.90;;;;;;5053087;28;20558;-48
2022/03/21 04:05:49;;;;;;;14.43;9.60;;;5.10;99.90;;;;;;5053514;28;20220;-48
2022/03/21 04:08:15;;;;;;;19.03;9.73;;;5.00;99.90;;;;;;5053068;28;20182;-49
2022/03/21 04:10:41;;;;;;;19.37;10.23;;;5.00;99.90;;;;;;5053367;28;20177;-50
2022/03/21 04:13:06;;;;;;;14.87;9.37;;;4.90;99.90;;;;;;5053224;28;20632;-48
2022/03/21 04:15:32;;;;;;;14.40;9.10;;;4.90;99.90;;;;;;5053983;28;20182;-50
2022/03/21 04:18:02;;;;;;;13.00;8.53;;;4.90;99.90;;;;;;5035628;28;20211;-51
2022/03/21 04:20:31;;;;;;;12.97;8.30;;;4.80;99.90;;;;;;5053358;28;20201;-49
2022/03/21 04:22:57;;;;;;;12.27;8.17;;;4.70;99.90;;;;;;5053029;28;20679;-48
2022/03/21 04:25:23;;;;;;;11.17;8.50;;;4.70;99.90;;;;;;5053006;28;20590;-47
2022/03/21 04:27:48;;;;;;;11.87;8.13;;;4.60;99.90;;;;;;5053135;28;20184;-48
2022/03/21 04:30:14;;;;;;;15.17;9.57;;;4.60;99.90;;;;;;5052824;28;20209;-49
2022/03/21 04:32:40;;;;;;;13.77;8.57;;;4.50;99.90;;;;;;5053362;28;20197;-48
2022/03/21 04:35:06;;;;;;;14.63;8.47;;;4.50;99.90;;;;;;5052919;28;20185;-48
2022/03/21 04:37:32;;;;;;;13.87;8.80;;;4.50;99.90;;;;;;5053163;28;20180;-47
2022/03/21 04:39:58;;;;;;;15.23;9.13;;;4.50;99.90;;;;;;5052854;28;20545;-48
2022/03/21 04:42:24;;;;;;;16.93;8.67;;;4.50;99.90;;;;;;5052992;28;20191;-47
2022/03/21 04:44:50;;;;;;;14.90;8.87;;;4.40;99.90;;;;;;5035014;28;20598;-47
2022/03/21 04:47:18;;;;;;;22.30;14.93;;;4.40;99.90;;;;;;5052989;28;20184;-45
2022/03/21 04:49:44;;;;;;;16.33;12.13;;;4.40;99.90;;;;;;5052728;28;20208;-48
2022/03/21 04:52:10;;;;;;;24.67;15.57;;;4.30;99.90;;;;;;5034782;28;20202;-47
2022/03/21 04:54:35;;;;;;;23.30;14.60;;;4.30;99.90;;;;;;5053707;28;20522;-48
2022/03/21 04:57:01;;;;;;;19.77;12.57;;;4.30;99.90;;;;;;5052936;28;20177;-48
2022/03/21 04:59:27;;;;;;;15.37;9.63;;;4.30;99.90;;;;;;5054461;28;20220;-47
2022/03/21 05:01:52;;;;;;;17.33;9.30;;;4.30;99.90;;;;;;5057281;28;20640;-45
2022/03/21 05:04:19;;;;;;;15.53;8.80;;;4.30;99.90;;;;;;5056653;28;20189;-47
2022/03/21 05:06:46;;;;;;;13.13;8.57;;;4.20;99.90;;;;;;5056524;28;20181;-47
2022/03/21 05:09:11;;;;;;;29.23;16.13;;;4.10;99.90;;;;;;5056469;28;20227;-47
2022/03/21 05:11:37;;;;;;;18.83;11.50;;;4.10;99.90;;;;;;5056888;28;20212;-47
2022/03/21 05:14:02;;;;;;;15.27;10.27;;;4.10;99.90;;;;;;5056412;28;20227;-48
2022/03/21 05:16:28;;;;;;;18.73;10.40;;;4.00;99.90;;;;;;5057061;28;20225;-48
2022/03/21 05:18:54;;;;;;;13.87;8.93;;;4.00;99.90;;;;;;5056682;28;20199;-48
2022/03/21 05:21:19;;;;;;;12.80;9.27;;;4.00;99.90;;;;;;5056220;28;20251;-48
2022/03/21 05:31:57;;;;;;;11.97;8.10;;;3.70;99.90;;;;;;5056164;28;20183;-47
2022/03/21 05:37:06;;;;;;;14.27;8.23;;;3.60;99.90;;;;;;5055965;28;20199;-48
2022/03/21 05:39:32;;;;;;;13.97;8.13;;;3.50;99.90;;;;;;5055843;28;20227;-49
2022/03/21 05:41:58;;;;;;;16.37;8.83;;;3.60;99.90;;;;;;5055706;28;20695;-47
2022/03/21 05:44:24;;;;;;;14.30;8.70;;;3.50;99.90;;;;;;5055706;28;20676;-47
2022/03/21 05:46:50;;;;;;;16.47;9.93;;;3.50;99.90;;;;;;5055538;28;20219;-47
2022/03/21 05:49:16;;;;;;;13.43;8.40;;;3.50;99.90;;;;;;5055570;28;20247;-48
2022/03/21 05:51:42;;;;;;;18.70;9.37;;;3.50;99.90;;;;;;5055375;28;20219;-47
2022/03/21 05:54:10;;;;;;;14.93;8.33;;;3.40;99.90;;;;;;5055436;28;20664;-49
2022/03/21 05:56:36;;;;;;;15.17;8.40;;;3.50;99.90;;;;;;5055279;28;20240;-46
2022/03/21 06:01:48;;;;;;;16.20;9.17;;;3.50;99.90;;;;;;5055879;28;20164;-48
2022/03/21 06:04:14;;;;;;;16.20;9.07;;;3.50;99.90;;;;;;5055758;28;20590;-48
2022/03/21 06:06:40;;;;;;;16.27;9.43;;;3.50;99.90;;;;;;5055096;28;20254;-47
2022/03/21 06:09:06;;;;;;;15.10;9.30;;;3.50;99.90;;;;;;5037339;28;20204;-49
2022/03/21 06:11:31;;;;;;;13.17;8.43;;;3.60;99.90;;;;;;5054663;28;20715;-49
2022/03/21 06:13:57;;;;;;;17.07;9.60;;;3.60;99.90;;;;;;5055524;28;20215;-48
2022/03/21 06:16:22;;;;;;;15.57;8.97;;;3.60;99.90;;;;;;5055353;28;20173;-48
2022/03/21 06:18:48;;;;;;;18.27;9.50;;;3.50;99.90;;;;;;5055353;28;20212;-51
2022/03/21 06:21:14;;;;;;;20.03;10.10;;;3.50;99.90;;;;;;5055123;28;20172;-46
2022/03/21 06:23:43;;;;;;;14.23;9.17;;;3.50;99.90;;;;;;5063693;28;20236;-47
2022/03/21 06:26:16;;;;;;;22.90;11.63;;;3.60;99.90;;;;;;5074565;28;20247;-45
2022/03/21 06:28:47;;;;;;;19.43;11.37;;;3.60;99.90;;;;;;5072180;28;20623;-47
2022/03/21 06:31:14;;;;;;;23.90;10.93;;;3.70;99.90;;;;;;5054687;28;20180;-48
2022/03/21 06:33:40;;;;;;;21.83;11.37;;;3.70;99.90;;;;;;5054819;28;20254;-48
2022/03/21 06:36:07;;;;;;;21.47;10.97;;;3.80;99.90;;;;;;5054936;28;20664;-48
2022/03/21 06:38:33;;;;;;;24.67;11.77;;;3.80;99.90;;;;;;5054611;28;20267;-47
2022/03/21 06:40:59;;;;;;;20.40;12.10;;;3.80;99.90;;;;;;5054680;28;20172;-49
2022/03/21 06:43:27;;;;;;;19.77;12.23;;;3.90;99.90;;;;;;5054494;28;20176;-48
2022/03/21 06:45:54;;;;;;;22.00;12.47;;;4.00;99.90;;;;;;5036628;28;20656;-47
2022/03/21 06:48:22;;;;;;;19.93;12.13;;;4.10;99.90;;;;;;5036764;28;20177;-47
2022/03/21 06:50:50;;;;;;;23.20;12.43;;;4.20;99.90;;;;;;5036442;28;20622;-47
2022/03/21 06:53:17;;;;;;;22.30;12.43;;;4.30;99.90;;;;;;5036540;28;20279;-48
2022/03/21 06:55:44;;;;;;;21.97;12.27;;;4.40;99.90;;;;;;5037387;28;20172;-47
2022/03/21 06:58:13;;;;;;;22.10;12.57;;;4.50;99.90;;;;;;5036474;28;20180;-48
2022/03/21 07:00:44;;;;;;;26.43;13.33;;;4.60;99.90;;;;;;5054784;28;20179;-47
2022/03/21 07:03:10;;;;;;;27.57;13.20;;;4.70;99.90;;;;;;5054322;28;20204;-47
2022/03/21 07:05:37;;;;;;;23.63;13.53;;;4.80;99.90;;;;;;5054220;28;20282;-47
2022/03/21 07:08:03;;;;;;;26.20;13.87;;;4.90;99.90;;;;;;5036278;28;20176;-47
2022/03/21 07:10:32;;;;;;;30.40;14.90;;;5.10;99.90;;;;;;5053947;28;20197;-46
2022/03/21 07:13:01;;;;;;;26.70;15.70;;;5.20;99.90;;;;;;5036254;28;20268;-48
2022/03/21 07:15:28;;;;;;;32.33;15.57;;;5.30;99.90;;;;;;5036192;28;20172;-49
2022/03/21 07:17:55;;;;;;;30.50;16.57;;;5.40;99.90;;;;;;5054469;28;20228;-47
2022/03/21 07:20:21;;;;;;;27.90;15.87;;;5.50;99.90;;;;;;5035948;28;20203;-46
2022/03/21 07:22:47;;;;;;;28.33;16.43;;;5.60;99.90;;;;;;5053490;28;20173;-47
2022/03/21 07:25:13;;;;;;;30.57;17.80;;;5.80;99.90;;;;;;5053895;28;20529;-47
2022/03/21 07:27:38;;;;;;;30.63;18.43;;;6.00;99.90;;;;;;5054344;28;20176;-47
2022/03/21 07:30:05;;;;;;;30.80;18.43;;;6.20;99.90;;;;;;5054207;28;20227;-48
2022/03/21 07:32:31;;;;;;;37.37;19.53;;;6.40;99.90;;;;;;5036000;28;20177;-47
2022/03/21 07:34:58;;;;;;;30.50;17.43;;;6.70;99.90;;;;;;5053503;28;20204;-47
2022/03/21 07:37:24;;;;;;;36.20;20.37;;;6.80;99.90;;;;;;5036056;28;20596;-47
2022/03/21 07:39:49;;;;;;;31.70;19.70;;;7.00;99.90;;;;;;5037082;28;20196;-48
2022/03/21 07:42:16;;;;;;;39.00;20.97;;;7.20;99.90;;;;;;5037263;28;20180;-49
2022/03/21 07:47:27;;;;;;;41.33;20.20;;;7.50;99.90;;;;;;5054481;28;20170;-47
2022/03/21 07:49:55;;;;;;;31.53;19.33;;;7.60;99.90;;;;;;5053760;28;20203;-48
2022/03/21 07:52:23;;;;;;;39.00;19.70;;;7.80;99.90;;;;;;5035719;28;20201;-48
2022/03/21 07:54:53;;;;;;;33.67;19.23;;;7.90;99.90;;;;;;5035995;28;20211;-48
2022/03/21 07:57:20;;;;;;;32.20;18.37;;;8.10;99.90;;;;;;5041371;28;20178;-48
2022/03/21 07:59:46;;;;;;;34.00;18.53;;;8.20;99.90;;;;;;5061345;28;20195;-47
2022/03/21 08:02:11;;;;;;;28.40;16.70;;;8.40;99.90;;;;;;5062208;28;20264;-48
2022/03/21 08:04:37;;;;;;;33.20;17.20;;;8.50;99.90;;;;;;5050028;28;20242;-47
2022/03/21 08:07:03;;;;;;;32.77;18.37;;;8.60;99.90;;;;;;5065682;28;20282;-50
2022/03/21 08:09:29;;;;;;;27.70;16.80;;;8.70;99.90;;;;;;5045879;28;20225;-48
2022/03/21 08:11:57;;;;;;;32.33;15.77;;;8.80;99.90;;;;;;5046210;28;20203;-47
2022/03/21 08:14:23;;;;;;;32.13;16.30;;;9.00;99.90;;;;;;5045710;28;20691;-46
2022/03/21 08:16:50;;;;;;;24.07;16.60;;;9.20;99.90;;;;;;5045015;28;20187;-47
2022/03/21 08:19:17;;;;;;;27.30;15.10;;;9.30;99.90;;;;;;5061934;28;20207;-47
2022/03/21 08:21:42;;;;;;;25.37;15.10;;;9.40;99.90;;;;;;5061960;28;20179;-48
2022/03/21 08:24:12;;;;;;;26.67;15.17;;;9.50;99.90;;;;;;5041316;28;20248;-48
2022/03/21 08:26:37;;;;;;;28.13;14.73;;;9.70;99.90;;;;;;5057573;28;20181;-47
2022/03/21 08:29:03;;;;;;;26.33;13.37;;;9.80;99.90;;;;;;5058303;28;20224;-48
2022/03/21 08:31:29;;;;;;;24.37;15.33;;;9.90;99.90;;;;;;5038308;28;20195;-48
2022/03/21 08:33:55;;;;;;;22.27;14.97;;;10.00;99.90;;;;;;5049502;28;20207;-48
2022/03/21 08:36:20;;;;;;;23.57;14.77;;;10.10;99.90;;;;;;5054710;28;20188;-46
2022/03/21 08:38:47;;;;;;;25.53;15.03;;;10.30;99.90;;;;;;5072885;28;20200;-47
2022/03/21 08:41:13;;;;;;;24.67;15.40;;;10.40;99.90;;;;;;5071988;28;20176;-47
2022/03/21 08:43:39;;;;;;;25.43;15.33;;;10.50;99.90;;;;;;5070294;28;20196;-48
2022/03/21 08:46:05;;;;;;;21.70;12.73;;;10.60;99.90;;;;;;5053165;28;20181;-47
2022/03/21 08:51:15;;;;;;;26.83;14.90;;;10.80;99.90;;;;;;5070031;28;20591;-47
2022/03/21 08:53:41;;;;;;;24.87;14.73;;;10.90;99.90;;;;;;5071002;28;20200;-47
2022/03/21 08:56:06;;;;;;;24.17;14.77;;;11.00;99.90;;;;;;5070553;28;20178;-47
2022/03/21 08:58:33;;;;;;;25.00;14.57;;;11.10;99.90;;;;;;5052258;28;20209;-47
2022/03/21 09:00:58;;;;;;;25.47;13.80;;;11.30;99.90;;;;;;5071806;28;20190;-47
2022/03/21 09:03:24;;;;;;;24.93;14.67;;;11.40;99.90;;;;;;5070919;28;20266;-47
2022/03/21 09:05:50;;;;;;;21.87;13.77;;;11.50;99.90;;;;;;5052915;28;20179;-46
2022/03/21 09:08:17;;;;;;;24.77;14.77;;;11.60;99.90;;;;;;5069583;28;20180;-47
2022/03/21 09:10:43;;;;;;;22.90;13.43;;;11.70;99.90;;;;;;5071126;28;20175;-47
2022/03/21 09:13:08;;;;;;;26.67;15.60;;;11.80;99.90;;;;;;5069852;28;20215;-47
2022/03/21 09:15:34;;;;;;;24.37;15.23;;;11.90;99.90;;;;;;5051814;28;20179;-46
2022/03/21 09:18:01;;;;;;;23.20;14.93;;;12.00;99.90;;;;;;5051076;28;20203;-46
2022/03/21 09:20:26;;;;;;;23.73;14.93;;;12.10;99.90;;;;;;5068320;28;20196;-45
2022/03/21 09:22:52;;;;;;;22.53;13.50;;;12.20;99.90;;;;;;5070184;28;20182;-47
2022/03/21 09:25:18;;;;;;;21.00;14.17;;;12.30;99.90;;;;;;5051245;28;20187;-45
2022/03/21 09:27:43;;;;;;;27.13;14.83;;;12.40;99.90;;;;;;5069847;28;20188;-45
2022/03/21 09:30:11;;;;;;;25.30;14.93;;;12.60;99.90;;;;;;5068901;28;20220;-45
2022/03/21 09:32:37;;;;;;;24.13;13.03;;;12.60;99.90;;;;;;5051076;28;20191;-46
2022/03/21 09:35:05;;;;;;;21.13;14.10;;;12.80;99.90;;;;;;5066356;28;20587;-46
2022/03/21 09:37:31;;;;;;;25.30;14.27;;;12.80;99.90;;;;;;5056323;28;20214;-45
2022/03/21 09:39:58;;;;;;;21.37;14.80;;;12.90;99.90;;;;;;5037725;28;20196;-46
2022/03/21 09:42:24;;;;;;;23.27;15.20;;;13.00;99.90;;;;;;5055586;28;20172;-47
2022/03/21 09:44:53;;;;;;;26.67;13.97;;;13.10;99.90;;;;;;5055001;28;20172;-46
2022/03/21 09:50:12;;;;;;;22.23;15.27;;;13.30;99.90;;;;;;5055919;28;20592;-46
2022/03/21 09:52:38;;;;;;;23.20;14.37;;;13.50;99.90;;;;;;5055606;28;20771;-46
2022/03/21 09:55:08;;;;;;;22.90;14.10;;;13.60;99.90;;;;;;5037358;28;20675;-48
2022/03/21 09:57:35;;;;;;;20.70;14.97;;;13.70;99.90;;;;;;5037684;28;20283;-46
2022/03/21 10:00:02;;;;;;;23.03;14.90;;;13.80;99.90;;;;;;5055395;28;20197;-46
2022/03/21 10:02:28;;;;;;;21.77;14.13;;;13.90;99.90;;;;;;5055729;28;20585;-46
2022/03/21 10:04:54;;;;;;;21.70;15.07;;;13.90;99.90;;;;;;5037621;28;20179;-46
2022/03/21 10:07:27;;;;;;;17.83;14.20;;;14.00;99.90;;;;;;5055659;28;20184;-47
2022/03/21 10:10:18;;;;;;;20.43;14.00;;;14.10;99.90;;;;;;5037297;28;20215;-45
2022/03/21 10:12:43;;;;;;;26.73;15.17;;;14.20;99.90;;;;;;5037395;28;20177;-47
2022/03/21 10:15:10;;;;;;;20.50;14.10;;;14.30;99.90;;;;;;5054926;28;20204;-45
2022/03/21 10:17:37;;;;;;;24.53;14.97;;;14.50;99.90;;;;;;5055042;28;20183;-46
2022/03/21 10:20:04;;;;;;;22.83;14.17;;;14.50;99.90;;;;;;5055100;28;20653;-47
2022/03/21 10:22:33;;;;;;;18.87;13.67;;;14.60;99.90;;;;;;5055573;28;20183;-46
2022/03/21 10:25:10;;;;;;;21.57;14.37;;;14.70;99.90;;;;;;5037066;28;20337;-45
2022/03/21 10:27:37;;;;;;;23.60;14.53;;;14.80;99.90;;;;;;5037128;28;20295;-46
2022/03/21 10:30:09;;;;;;;22.07;13.73;;;14.80;99.90;;;;;;5020540;28;20679;-47
2022/03/21 10:32:46;;;;;;;26.50;15.63;;;14.90;99.90;;;;;;5037071;28;20195;-47
2022/03/21 10:35:23;;;;;;;37.07;17.67;;;15.00;99.90;;;;;;5036886;28;20180;-46
2022/03/21 10:37:52;;;;;;;26.67;16.77;;;15.10;99.90;;;;;;5036765;28;20172;-47
2022/03/21 10:40:33;;;;;;;18.83;13.87;;;15.10;99.90;;;;;;5054840;28;20371;-47
2022/03/21 10:43:07;;;;;;;22.53;14.47;;;15.20;99.90;;;;;;5036700;28;20540;-46
2022/03/21 10:45:42;;;;;;;23.07;14.80;;;15.30;99.90;;;;;;5054890;28;20202;-45
2022/03/21 10:48:13;;;;;;;17.70;13.10;;;15.50;99.90;;;;;;5036505;28;20284;-46
2022/03/21 10:50:43;;;;;;;21.87;14.63;;;15.60;99.90;;;;;;5054106;28;20172;-46
2022/03/21 10:53:23;;;;;;;19.47;13.40;;;15.70;99.90;;;;;;5054927;28;20567;-46
2022/03/21 10:55:53;;;;;;;20.17;13.43;;;15.80;99.90;;;;;;5054619;28;20179;-46
2022/03/21 10:58:33;;;;;;;25.07;13.17;;;15.90;99.90;;;;;;5036045;28;20224;-47
2022/03/21 11:01:26;;;;;;;17.20;13.10;;;16.10;99.90;;;;;;5063578;28;20179;-43
2022/03/21 11:03:59;;;;;;;19.67;13.67;;;16.30;99.90;;;;;;5048402;28;20167;-46
2022/03/21 11:06:29;;;;;;;22.80;13.30;;;16.50;99.90;;;;;;5054665;28;20190;-46
2022/03/21 11:08:55;;;;;;;21.10;12.73;;;16.60;99.90;;;;;;5053987;28;20555;-45
2022/03/21 11:11:22;;;;;;;23.60;13.43;;;16.70;99.90;;;;;;5019667;28;20184;-46
2022/03/21 11:13:50;;;;;;;18.67;12.83;;;16.80;99.90;;;;;;5036149;28;20616;-47
2022/03/21 11:16:17;;;;;;;17.80;12.50;;;16.90;99.90;;;;;;5053904;28;20263;-47
2022/03/21 11:18:47;;;;;;;35.40;15.97;;;17.00;99.90;;;;;;5036342;28;20286;-46
2022/03/21 11:21:13;;;;;;;20.80;13.33;;;17.00;99.90;;;;;;5053954;28;20183;-48
2022/03/21 11:23:42;;;;;;;20.60;12.57;;;17.20;99.90;;;;;;5053729;28;20187;-46
2022/03/21 11:26:33;;;;;;;18.17;12.57;;;17.20;99.90;;;;;;5053821;28;20212;-46
2022/03/21 11:29:11;;;;;;;20.50;12.93;;;17.30;99.90;;;;;;5035727;28;20199;-47
2022/03/21 11:31:36;;;;;;;21.93;12.93;;;17.40;99.90;;;;;;5053905;28;20247;-45
2022/03/21 11:34:33;;;;;;;17.17;12.67;;;17.40;99.90;;;;;;5035524;28;20747;-47
2022/03/21 11:36:59;;;;;;;21.73;12.67;;;17.50;99.90;;;;;;5032490;28;20691;-47
2022/03/21 11:39:25;;;;;;;18.73;12.73;;;17.60;99.90;;;;;;5036375;28;20231;-45
2022/03/21 11:42:08;;;;;;;17.37;12.77;;;17.60;99.90;;;;;;5035866;28;20183;-46
2022/03/21 11:44:35;;;;;;;20.27;12.53;;;17.70;99.90;;;;;;5053752;28;20178;-45
2022/03/21 11:47:19;;;;;;;21.20;12.63;;;17.80;99.90;;;;;;5035785;28;20722;-46
2022/03/21 11:49:45;;;;;;;16.57;11.00;;;17.90;99.90;;;;;;5053731;28;20254;-45
2022/03/21 11:52:11;;;;;;;16.77;11.40;;;18.00;99.90;;;;;;5053561;28;20200;-45
2022/03/21 11:54:37;;;;;;;22.13;11.20;;;18.10;99.90;;;;;;5035395;28;20207;-46
2022/03/21 11:57:24;;;;;;;16.00;11.03;;;18.20;99.90;;;;;;5053383;28;20168;-46
2022/03/21 11:59:52;;;;;;;18.07;11.20;;;18.30;99.90;;;;;;5035453;28;20204;-46
2022/03/21 12:02:19;;;;;;;16.40;12.00;;;18.30;99.90;;;;;;5053469;28;20199;-47
2022/03/21 12:04:59;;;;;;;15.47;11.63;;;18.40;99.90;;;;;;5053414;28;20220;-45
2022/03/21 12:07:25;;;;;;;17.47;12.53;;;18.50;99.90;;;;;;5053829;28;20576;-47
2022/03/21 12:09:52;;;;;;;19.57;12.70;;;18.60;99.90;;;;;;5057020;28;20234;-46
2022/03/21 12:12:19;;;;;;;21.37;12.83;;;18.70;99.90;;;;;;5057465;28;20616;-44
2022/03/21 12:14:54;;;;;;;18.03;11.73;;;18.80;99.90;;;;;;5057233;28;20203;-45
2022/03/21 12:17:22;;;;;;;25.77;13.90;;;18.90;99.90;;;;;;5057660;28;20532;-45
2022/03/21 12:19:48;;;;;;;20.60;12.60;;;19.00;99.90;;;;;;5057050;28;20207;-45
2022/03/21 12:22:36;;;;;;;18.17;11.90;;;19.10;99.90;;;;;;5057186;28;20176;-45
2022/03/21 12:25:07;;;;;;;18.30;12.93;;;19.30;99.90;;;;;;5039301;28;20179;-47
2022/03/21 12:27:45;;;;;;;17.87;12.23;;;19.40;99.90;;;;;;5039118;28;20651;-45
2022/03/21 12:30:20;;;;;;;19.00;12.57;;;19.50;99.90;;;;;;5056939;28;20195;-45
2022/03/21 12:33:07;;;;;;;16.33;12.17;;;19.50;99.90;;;;;;5056921;28;20577;-45
2022/03/21 12:35:34;;;;;;;17.53;12.60;;;19.60;99.90;;;;;;5056790;28;20180;-45
2022/03/21 12:38:17;;;;;;;18.40;12.73;;;19.50;99.90;;;;;;5057069;28;20192;-46
2022/03/21 12:40:46;;;;;;;14.03;10.80;;;19.40;99.90;;;;;;5056976;28;20167;-43
2022/03/21 12:43:13;;;;;;;16.90;12.23;;;19.40;99.90;;;;;;5038846;28;20187;-46
2022/03/21 12:45:38;;;;;;;16.80;11.53;;;19.40;99.90;;;;;;5056838;28;20258;-46
2022/03/21 12:48:09;;;;;;;13.60;10.57;;;19.50;99.90;;;;;;5056860;28;20708;-45
2022/03/21 12:50:36;;;;;;;16.27;11.37;;;19.60;99.90;;;;;;5038966;28;20192;-45
2022/03/21 12:53:08;;;;;;;20.30;10.87;;;19.80;99.90;;;;;;5056438;28;20184;-45
2022/03/21 12:55:34;;;;;;;20.47;12.23;;;19.90;99.90;;;;;;5056759;28;20242;-46
2022/03/21 12:58:02;;;;;;;17.00;11.00;;;20.00;99.90;;;;;;5056761;28;20643;-45
2022/03/21 13:00:37;;;;;;;18.43;11.03;;;20.20;99.90;;;;;;5056338;28;20207;-45
2022/03/21 13:03:09;;;;;;;17.80;11.30;;;20.20;99.90;;;;;;5023066;28;20176;-47
2022/03/21 13:11:34;;;;;;;18.43;11.20;;;20.50;99.90;;;;;;5056592;28;20223;-46
2022/03/21 13:14:14;;;;;;;16.40;10.77;;;20.50;99.90;;;;;;5056382;28;20187;-45